createdAt,value
2023-09-08T00:04:01.407Z,4.6
2023-09-08T00:09:17.911Z,4.6
2023-09-08T00:14:18.891Z,4.4
2023-09-08T00:19:19.913Z,4.2
2023-09-08T00:24:20.868Z,4.1
2023-09-08T00:29:21.952Z,4.0
2023-09-08T00:34:23.118Z,3.3
2023-09-08T00:39:23.760Z,3.8
2023-09-08T00:44:24.714Z,3.6
2023-09-08T00:49:25.798Z,3.7
2023-09-08T00:54:26.707Z,3.6
2023-09-08T00:59:27.707Z,3.6
2023-09-08T01:04:28.835Z,3.3
2023-09-08T01:09:29.648Z,3.4
2023-09-08T01:14:30.490Z,3.3
2023-09-08T01:19:31.537Z,3.4
2023-09-08T01:24:32.442Z,3.1
2023-09-08T01:29:33.420Z,3.3
2023-09-08T01:34:34.465Z,2.9
2023-09-08T01:39:35.363Z,3.1
2023-09-08T01:44:36.373Z,3.0
2023-09-08T01:49:37.278Z,3.0
2023-09-08T01:54:38.262Z,2.8
2023-09-08T01:59:39.187Z,2.8
2023-09-08T02:04:40.272Z,3.4
2023-09-08T02:09:41.190Z,3.5
2023-09-08T02:14:42.197Z,3.3
2023-09-08T02:19:43.211Z,3.9
2023-09-08T02:24:44.165Z,3.4
2023-09-08T02:29:45.097Z,3.0
2023-09-08T02:34:46.176Z,3.2
2023-09-08T02:39:47.099Z,2.7
2023-09-08T02:44:48.070Z,2.7
2023-09-08T02:49:49.115Z,3.1
2023-09-08T02:54:50.074Z,2.7
2023-09-08T02:59:50.951Z,4.0
2023-09-08T03:04:51.975Z,3.0
2023-09-08T03:09:52.821Z,2.8
2023-09-08T03:14:53.802Z,3.1
2023-09-08T03:19:54.821Z,3.1
2023-09-08T03:24:55.695Z,3.0
2023-09-08T03:29:56.647Z,2.9
2023-09-08T03:34:57.613Z,3.0
2023-09-08T03:39:58.545Z,3.4
2023-09-08T03:44:59.410Z,3.2
2023-09-08T03:50:01.392Z,3.1
2023-09-08T03:55:01.126Z,3.0
2023-09-08T04:00:02.098Z,3.0
2023-09-08T04:05:03.102Z,3.1
2023-09-08T04:10:10.279Z,2.9
2023-09-08T04:15:04.881Z,3.0
2023-09-08T04:20:05.879Z,2.7
2023-09-08T04:25:06.789Z,2.8
2023-09-08T04:30:07.968Z,2.8
2023-09-08T04:35:08.943Z,2.6
2023-09-08T04:40:09.505Z,2.5
2023-09-08T04:45:10.413Z,3.2
2023-09-08T04:50:11.444Z,3.0
2023-09-08T04:55:12.308Z,3.1
2023-09-08T05:00:13.216Z,3.0
2023-09-08T05:05:14.321Z,2.7
2023-09-08T05:10:15.011Z,2.8
2023-09-08T05:15:16.262Z,3.2
2023-09-08T05:20:17.071Z,3.0
2023-09-08T05:25:17.930Z,2.6
2023-09-08T05:30:18.871Z,2.7
2023-09-08T05:35:19.787Z,3.0
2023-09-08T05:40:20.657Z,3.3
2023-09-08T05:45:21.472Z,2.8
2023-09-08T05:50:22.418Z,2.9
2023-09-08T05:55:23.134Z,3.0
2023-09-08T06:00:24.123Z,3.0
2023-09-08T06:05:25.102Z,3.0
2023-09-08T06:10:25.850Z,3.0
2023-09-08T06:15:26.736Z,3.3
2023-09-08T06:20:27.716Z,3.4
2023-09-08T06:25:28.422Z,3.5
2023-09-08T06:30:29.220Z,3.2
2023-09-08T06:35:30.199Z,3.2
2023-09-08T06:40:31.074Z,3.0
2023-09-08T06:45:31.940Z,3.2
2023-09-08T06:50:32.964Z,3.1
2023-09-08T06:55:33.684Z,2.8
2023-09-08T07:00:34.618Z,3.2
2023-09-08T07:05:35.590Z,3.0
2023-09-08T07:10:36.441Z,3.1
2023-09-08T07:15:37.221Z,2.6
2023-09-08T07:20:38.140Z,2.9
2023-09-08T07:25:39.037Z,3.0
2023-09-08T07:30:40.008Z,2.7
2023-09-08T07:35:41.028Z,3.4
2023-09-08T07:40:41.680Z,3.4
2023-09-08T07:45:42.716Z,3.6
2023-09-08T07:50:43.682Z,4.3
2023-09-08T07:55:44.562Z,3.6
2023-09-08T08:00:45.503Z,3.8
2023-09-08T08:05:46.568Z,3.5
2023-09-08T08:10:47.322Z,4.1
2023-09-08T08:15:48.295Z,4.0
2023-09-08T08:20:49.265Z,4.1
2023-09-08T08:25:50.121Z,3.8
2023-09-08T08:30:51.044Z,3.5
2023-09-08T08:35:52.089Z,3.6
2023-09-08T08:40:54.718Z,4.4
2023-09-08T08:45:53.809Z,3.4
2023-09-08T08:50:54.803Z,3.2
2023-09-08T08:55:55.629Z,3.4
2023-09-08T09:00:56.538Z,3.5
2023-09-08T09:05:57.751Z,4.1
2023-09-08T09:10:58.375Z,3.7
2023-09-08T09:15:59.277Z,3.7
2023-09-08T09:21:00.218Z,3.3
2023-09-08T09:26:01.069Z,3.9
2023-09-08T09:31:02.016Z,3.4
2023-09-08T09:36:03.001Z,4.1
2023-09-08T09:41:03.802Z,3.5
2023-09-08T09:46:04.877Z,3.7
2023-09-08T09:51:05.860Z,4.0
2023-09-08T09:56:06.744Z,3.9
2023-09-08T10:01:07.786Z,4.6
2023-09-08T10:06:08.812Z,4.0
2023-09-08T10:11:10.032Z,4.0
2023-09-08T10:16:10.594Z,4.7
2023-09-08T10:21:11.576Z,4.5
2023-09-08T10:26:12.469Z,4.7
2023-09-08T10:31:15.607Z,3.8
2023-09-08T10:36:14.437Z,3.9
2023-09-08T10:41:15.231Z,3.8
2023-09-08T10:46:16.206Z,4.2
2023-09-08T10:51:17.180Z,4.4
2023-09-08T10:56:18.557Z,4.6
2023-09-08T11:01:19.293Z,4.0
2023-09-08T11:06:20.426Z,4.3
2023-09-08T11:11:21.188Z,3.9
2023-09-08T11:16:22.132Z,4.1
2023-09-08T11:21:23.092Z,4.1
2023-09-08T11:26:23.988Z,3.7
2023-09-08T11:31:25.028Z,4.1
2023-09-08T11:36:26.035Z,3.9
2023-09-08T11:41:26.937Z,3.9
2023-09-08T11:46:28.009Z,4.6
2023-09-08T11:51:28.967Z,4.1
2023-09-08T11:56:29.942Z,3.8
2023-09-08T12:01:30.956Z,4.4
2023-09-08T12:06:32.072Z,3.6
2023-09-08T12:11:32.926Z,4.1
2023-09-08T12:16:34.038Z,4.0
2023-09-08T12:21:35.059Z,3.8
2023-09-08T12:26:36.058Z,3.8
2023-09-08T12:31:37.103Z,4.0
2023-09-08T12:36:38.048Z,4.5
2023-09-08T12:41:39.022Z,4.5
2023-09-08T12:46:40.115Z,3.9
2023-09-08T12:51:41.148Z,4.1
2023-09-08T12:56:42.129Z,3.7
2023-09-08T13:01:43.144Z,3.7
2023-09-08T13:06:44.260Z,3.6
2023-09-08T13:11:45.104Z,4.2
2023-09-08T13:16:46.247Z,3.5
2023-09-08T13:21:47.333Z,3.4
2023-09-08T13:26:48.342Z,3.9
2023-09-08T13:31:49.526Z,3.9
2023-09-08T13:36:50.525Z,3.5
2023-09-08T13:41:51.472Z,3.6
2023-09-08T13:46:52.707Z,4.2
2023-09-08T13:51:56.338Z,3.8
2023-09-08T13:56:55.046Z,4.4
2023-09-08T14:02:12.853Z,3.8
2023-09-08T14:07:06.244Z,3.5
2023-09-08T14:16:58.753Z,4.1
2023-09-08T14:21:59.825Z,4.0
2023-09-08T14:27:01.335Z,3.6
2023-09-08T14:32:01.708Z,3.9
2023-09-08T14:37:04.761Z,4.3
2023-09-08T14:42:03.821Z,4.1
2023-09-08T14:47:04.900Z,4.1
2023-09-08T14:52:05.984Z,4.1
2023-09-08T14:57:06.979Z,3.9
2023-09-08T15:02:08.048Z,4.1
2023-09-08T15:07:09.167Z,4.5
2023-09-08T15:12:10.120Z,4.3
2023-09-08T15:17:11.199Z,4.3
2023-09-08T15:22:12.341Z,5.0
2023-09-08T15:27:13.197Z,4.6
2023-09-08T15:32:14.379Z,4.4
2023-09-08T15:37:16.040Z,4.4
2023-09-08T15:42:16.578Z,4.2
2023-09-08T15:47:17.556Z,4.5
2023-09-08T15:52:18.693Z,4.4
2023-09-08T15:57:19.673Z,4.3
2023-09-08T16:02:20.763Z,4.1
2023-09-08T16:07:21.842Z,3.9
2023-09-08T16:12:22.863Z,4.0
2023-09-08T16:17:23.959Z,4.2
2023-09-08T16:22:25.068Z,4.7
2023-09-08T16:27:26.002Z,4.2
2023-09-08T16:32:27.127Z,4.2
2023-09-08T16:37:28.253Z,3.8
2023-09-08T16:42:29.183Z,4.1
2023-09-08T16:47:30.292Z,4.3
2023-09-08T16:52:31.384Z,3.9
2023-09-08T16:57:32.349Z,4.0
2023-09-08T17:02:33.453Z,4.5
2023-09-08T17:07:34.775Z,4.7
2023-09-08T17:12:35.504Z,4.7
2023-09-08T17:17:36.500Z,4.2
2023-09-08T17:22:37.636Z,4.1
2023-09-08T17:27:38.733Z,4.0
2023-09-08T17:32:39.720Z,4.3
2023-09-08T17:37:40.815Z,4.3
2023-09-08T17:42:41.780Z,4.4
2023-09-08T17:47:42.859Z,4.0
2023-09-08T17:52:43.907Z,4.0
2023-09-08T17:57:46.978Z,3.7
2023-09-08T18:02:46.047Z,3.7
2023-09-08T18:07:47.068Z,3.8
2023-09-08T18:12:48.042Z,3.9
2023-09-08T18:17:49.184Z,3.5
2023-09-08T18:22:50.299Z,3.8
2023-09-08T18:27:51.231Z,3.7
2023-09-08T18:32:52.350Z,3.6
2023-09-08T18:37:53.449Z,3.6
2023-09-08T18:42:54.391Z,3.6
2023-09-08T18:47:55.561Z,4.1
2023-09-08T18:52:56.533Z,3.6
2023-09-08T18:57:57.554Z,3.5
2023-09-08T19:02:58.896Z,4.0
2023-09-08T19:07:59.654Z,3.3
2023-09-08T19:13:01.405Z,4.1
2023-09-08T19:18:01.541Z,5.1
2023-09-08T19:23:02.636Z,4.7
2023-09-08T19:28:03.570Z,4.7
2023-09-08T19:33:04.675Z,5.1
2023-09-08T19:38:05.696Z,4.9
2023-09-08T19:43:06.534Z,4.7
2023-09-08T19:48:07.635Z,4.6
2023-09-08T19:53:08.544Z,4.2
2023-09-08T19:58:09.549Z,4.1
2023-09-08T20:03:10.470Z,4.3
2023-09-08T20:08:11.502Z,4.1
2023-09-08T20:13:15.809Z,4.8
2023-09-08T20:18:13.380Z,4.2
2023-09-08T20:23:15.902Z,4.4
2023-09-08T20:28:15.300Z,4.6
2023-09-08T20:33:16.372Z,4.2
2023-09-08T20:38:17.544Z,4.3
2023-09-08T20:43:18.351Z,4.3
2023-09-08T20:48:19.302Z,3.8
2023-09-08T20:53:20.324Z,4.0
2023-09-08T20:58:21.272Z,4.4
2023-09-08T21:03:22.289Z,4.3
2023-09-08T21:08:23.323Z,4.0
2023-09-08T21:13:24.194Z,4.3
2023-09-08T21:18:25.178Z,3.9
2023-09-08T21:23:26.282Z,4.1
2023-09-08T21:28:27.213Z,4.0
2023-09-08T21:33:28.127Z,4.1
2023-09-08T21:38:29.469Z,4.5
2023-09-08T21:43:30.039Z,4.1
2023-09-08T21:48:31.107Z,4.0
2023-09-08T21:53:32.164Z,4.0
2023-09-08T21:58:33.091Z,4.0
2023-09-08T22:03:34.453Z,3.8
2023-09-08T22:08:35.723Z,4.4
2023-09-08T22:13:37.730Z,4.2
2023-09-08T22:18:37.101Z,4.0
2023-09-08T22:23:38.247Z,4.0
2023-09-08T22:28:38.900Z,3.6
2023-09-08T22:33:40.176Z,4.5
2023-09-08T22:38:40.850Z,4.3
2023-09-08T22:43:41.609Z,4.2
2023-09-08T22:48:42.686Z,3.8
2023-09-08T22:53:43.560Z,4.0
2023-09-08T22:58:44.428Z,4.4
2023-09-08T23:03:45.469Z,4.5
2023-09-08T23:08:46.489Z,3.7
2023-09-08T23:13:47.319Z,3.8
2023-09-08T23:18:48.201Z,4.2
2023-09-08T23:23:49.202Z,4.4
2023-09-08T23:28:50.182Z,4.4
2023-09-08T23:33:51.100Z,4.0
2023-09-08T23:38:52.097Z,4.4
2023-09-08T23:43:52.979Z,4.7
2023-09-08T23:48:56.651Z,4.5
2023-09-08T23:53:54.909Z,5.3
2023-09-08T23:58:55.733Z,4.3
